sensor_id;sensor_type;location;lat;lon;timestamp;P1;durP1;ratioP1;P2;durP2;ratioP2
14247;SDS011;7208;49.826;6.004;2022-07-06T00:01:04;1.50;;;1.07;;
14247;SDS011;7208;49.826;6.004;2022-07-06T00:03:29;1.20;;;1.10;;
14247;SDS011;7208;49.826;6.004;2022-07-06T00:05:55;1.43;;;1.20;;
14247;SDS011;7208;49.826;6.004;2022-07-06T00:08:21;1.37;;;1.00;;
14247;SDS011;7208;49.826;6.004;2022-07-06T00:10:47;1.70;;;1.27;;
14247;SDS011;7208;49.826;6.004;2022-07-06T00:13:12;2.40;;;1.27;;
14247;SDS011;7208;49.826;6.004;2022-07-06T00:15:38;1.27;;;1.17;;
14247;SDS011;7208;49.826;6.004;2022-07-06T00:18:04;1.80;;;0.97;;
14247;SDS011;7208;49.826;6.004;2022-07-06T00:20:29;3.03;;;1.50;;
14247;SDS011;7208;49.826;6.004;2022-07-06T00:22:55;1.53;;;1.00;;
14247;SDS011;7208;49.826;6.004;2022-07-06T00:25:21;1.27;;;1.17;;
14247;SDS011;7208;49.826;6.004;2022-07-06T00:27:46;1.27;;;1.17;;
14247;SDS011;7208;49.826;6.004;2022-07-06T00:30:12;2.80;;;1.37;;
14247;SDS011;7208;49.826;6.004;2022-07-06T00:32:37;1.20;;;1.10;;
14247;SDS011;7208;49.826;6.004;2022-07-06T00:35:03;2.10;;;1.17;;
14247;SDS011;7208;49.826;6.004;2022-07-06T00:37:30;1.97;;;1.20;;
14247;SDS011;7208;49.826;6.004;2022-07-06T00:39:55;1.77;;;1.10;;
14247;SDS011;7208;49.826;6.004;2022-07-06T00:42:21;2.47;;;1.30;;
14247;SDS011;7208;49.826;6.004;2022-07-06T00:44:47;1.47;;;1.37;;
14247;SDS011;7208;49.826;6.004;2022-07-06T00:47:12;1.73;;;1.23;;
14247;SDS011;7208;49.826;6.004;2022-07-06T00:49:38;1.80;;;1.20;;
14247;SDS011;7208;49.826;6.004;2022-07-06T00:52:22;1.87;;;1.30;;
14247;SDS011;7208;49.826;6.004;2022-07-06T00:54:48;1.23;;;1.13;;
14247;SDS011;7208;49.826;6.004;2022-07-06T00:57:14;1.30;;;1.20;;
14247;SDS011;7208;49.826;6.004;2022-07-06T00:59:39;1.20;;;1.20;;
14247;SDS011;7208;49.826;6.004;2022-07-06T01:02:05;1.83;;;1.27;;
14247;SDS011;7208;49.826;6.004;2022-07-06T01:04:31;2.80;;;1.60;;
14247;SDS011;7208;49.826;6.004;2022-07-06T01:06:56;1.57;;;1.20;;
14247;SDS011;7208;49.826;6.004;2022-07-06T01:09:22;2.80;;;1.50;;
14247;SDS011;7208;49.826;6.004;2022-07-06T01:11:48;1.70;;;1.60;;
14247;SDS011;7208;49.826;6.004;2022-07-06T01:14:14;3.93;;;1.77;;
14247;SDS011;7208;49.826;6.004;2022-07-06T01:16:40;1.97;;;1.77;;
14247;SDS011;7208;49.826;6.004;2022-07-06T01:19:06;1.50;;;1.40;;
14247;SDS011;7208;49.826;6.004;2022-07-06T01:21:31;1.63;;;1.53;;
14247;SDS011;7208;49.826;6.004;2022-07-06T01:23:57;2.00;;;1.80;;
14247;SDS011;7208;49.826;6.004;2022-07-06T01:26:22;2.00;;;1.73;;
14247;SDS011;7208;49.826;6.004;2022-07-06T01:28:49;1.87;;;1.77;;
14247;SDS011;7208;49.826;6.004;2022-07-06T01:31:17;2.47;;;2.17;;
14247;SDS011;7208;49.826;6.004;2022-07-06T01:33:44;4.67;;;2.13;;
14247;SDS011;7208;49.826;6.004;2022-07-06T01:36:10;1.60;;;1.50;;
14247;SDS011;7208;49.826;6.004;2022-07-06T01:38:43;1.50;;;1.40;;
14247;SDS011;7208;49.826;6.004;2022-07-06T01:41:16;1.70;;;1.53;;
14247;SDS011;7208;49.826;6.004;2022-07-06T01:43:42;2.10;;;1.60;;
14247;SDS011;7208;49.826;6.004;2022-07-06T01:46:08;2.80;;;1.93;;
14247;SDS011;7208;49.826;6.004;2022-07-06T01:48:33;2.47;;;1.73;;
14247;SDS011;7208;49.826;6.004;2022-07-06T01:50:59;2.17;;;2.00;;
14247;SDS011;7208;49.826;6.004;2022-07-06T01:53:25;2.20;;;1.70;;
14247;SDS011;7208;49.826;6.004;2022-07-06T01:55:51;3.87;;;2.00;;
14247;SDS011;7208;49.826;6.004;2022-07-06T01:58:16;1.93;;;1.83;;
14247;SDS011;7208;49.826;6.004;2022-07-06T02:00:43;2.07;;;1.97;;
14247;SDS011;7208;49.826;6.004;2022-07-06T02:03:08;2.47;;;1.83;;
14247;SDS011;7208;49.826;6.004;2022-07-06T02:05:37;2.33;;;2.13;;
14247;SDS011;7208;49.826;6.004;2022-07-06T02:08:03;2.70;;;2.23;;
14247;SDS011;7208;49.826;6.004;2022-07-06T02:10:28;2.60;;;2.07;;
14247;SDS011;7208;49.826;6.004;2022-07-06T02:12:54;2.87;;;2.33;;
14247;SDS011;7208;49.826;6.004;2022-07-06T02:15:20;3.20;;;2.60;;
14247;SDS011;7208;49.826;6.004;2022-07-06T02:17:45;2.47;;;2.27;;
14247;SDS011;7208;49.826;6.004;2022-07-06T02:20:11;3.07;;;2.73;;
14247;SDS011;7208;49.826;6.004;2022-07-06T02:22:37;2.70;;;2.50;;
14247;SDS011;7208;49.826;6.004;2022-07-06T02:25:03;3.10;;;2.80;;
14247;SDS011;7208;49.826;6.004;2022-07-06T02:27:29;4.77;;;2.60;;
14247;SDS011;7208;49.826;6.004;2022-07-06T02:29:54;4.80;;;2.60;;
14247;SDS011;7208;49.826;6.004;2022-07-06T02:32:20;3.47;;;2.10;;
14247;SDS011;7208;49.826;6.004;2022-07-06T02:34:46;3.47;;;2.27;;
14247;SDS011;7208;49.826;6.004;2022-07-06T02:37:11;3.83;;;2.13;;
14247;SDS011;7208;49.826;6.004;2022-07-06T02:39:37;2.17;;;1.77;;
14247;SDS011;7208;49.826;6.004;2022-07-06T02:42:02;2.10;;;1.90;;
14247;SDS011;7208;49.826;6.004;2022-07-06T02:44:28;4.23;;;2.70;;
14247;SDS011;7208;49.826;6.004;2022-07-06T02:46:54;2.30;;;2.07;;
14247;SDS011;7208;49.826;6.004;2022-07-06T02:49:20;3.33;;;2.13;;
14247;SDS011;7208;49.826;6.004;2022-07-06T02:51:45;2.90;;;2.60;;
14247;SDS011;7208;49.826;6.004;2022-07-06T02:54:11;3.57;;;2.63;;
14247;SDS011;7208;49.826;6.004;2022-07-06T02:56:36;4.97;;;3.37;;
14247;SDS011;7208;49.826;6.004;2022-07-06T02:59:02;4.10;;;3.70;;
14247;SDS011;7208;49.826;6.004;2022-07-06T03:01:28;4.30;;;3.90;;
14247;SDS011;7208;49.826;6.004;2022-07-06T03:03:53;4.43;;;3.87;;
14247;SDS011;7208;49.826;6.004;2022-07-06T03:06:19;4.63;;;2.73;;
14247;SDS011;7208;49.826;6.004;2022-07-06T03:08:45;2.23;;;2.03;;
14247;SDS011;7208;49.826;6.004;2022-07-06T03:11:10;2.83;;;2.30;;
14247;SDS011;7208;49.826;6.004;2022-07-06T03:13:36;2.87;;;2.10;;
14247;SDS011;7208;49.826;6.004;2022-07-06T03:16:01;3.63;;;2.40;;
14247;SDS011;7208;49.826;6.004;2022-07-06T03:18:27;4.37;;;2.60;;
14247;SDS011;7208;49.826;6.004;2022-07-06T03:20:53;3.90;;;2.60;;
14247;SDS011;7208;49.826;6.004;2022-07-06T03:23:18;3.17;;;2.40;;
14247;SDS011;7208;49.826;6.004;2022-07-06T03:25:44;2.90;;;2.40;;
14247;SDS011;7208;49.826;6.004;2022-07-06T03:28:10;3.27;;;2.30;;
14247;SDS011;7208;49.826;6.004;2022-07-06T03:30:36;3.70;;;2.80;;
14247;SDS011;7208;49.826;6.004;2022-07-06T03:33:02;2.87;;;2.60;;
14247;SDS011;7208;49.826;6.004;2022-07-06T03:35:27;4.47;;;2.70;;
14247;SDS011;7208;49.826;6.004;2022-07-06T03:37:53;3.03;;;2.73;;
14247;SDS011;7208;49.826;6.004;2022-07-06T03:40:19;5.13;;;3.10;;
14247;SDS011;7208;49.826;6.004;2022-07-06T03:42:44;3.13;;;2.83;;
14247;SDS011;7208;49.826;6.004;2022-07-06T03:45:10;4.13;;;3.33;;
14247;SDS011;7208;49.826;6.004;2022-07-06T03:47:36;4.03;;;3.20;;
14247;SDS011;7208;49.826;6.004;2022-07-06T03:50:02;3.97;;;3.40;;
14247;SDS011;7208;49.826;6.004;2022-07-06T03:52:28;3.50;;;3.20;;
14247;SDS011;7208;49.826;6.004;2022-07-06T03:54:54;3.80;;;3.17;;
14247;SDS011;7208;49.826;6.004;2022-07-06T03:57:20;4.33;;;3.23;;
14247;SDS011;7208;49.826;6.004;2022-07-06T03:59:46;3.63;;;3.33;;
14247;SDS011;7208;49.826;6.004;2022-07-06T04:02:12;4.47;;;3.67;;
14247;SDS011;7208;49.826;6.004;2022-07-06T04:04:38;5.17;;;3.67;;
14247;SDS011;7208;49.826;6.004;2022-07-06T04:07:03;4.40;;;4.00;;
14247;SDS011;7208;49.826;6.004;2022-07-06T04:09:29;6.00;;;4.17;;
14247;SDS011;7208;49.826;6.004;2022-07-06T04:11:55;4.23;;;3.80;;
14247;SDS011;7208;49.826;6.004;2022-07-06T04:14:21;5.33;;;3.70;;
14247;SDS011;7208;49.826;6.004;2022-07-06T04:16:46;5.63;;;4.17;;
14247;SDS011;7208;49.826;6.004;2022-07-06T04:19:12;4.60;;;4.20;;
14247;SDS011;7208;49.826;6.004;2022-07-06T04:21:38;3.57;;;3.37;;
14247;SDS011;7208;49.826;6.004;2022-07-06T04:24:03;5.47;;;3.60;;
14247;SDS011;7208;49.826;6.004;2022-07-06T04:26:30;4.77;;;3.47;;
14247;SDS011;7208;49.826;6.004;2022-07-06T04:28:55;3.83;;;3.47;;
14247;SDS011;7208;49.826;6.004;2022-07-06T04:31:21;6.07;;;3.60;;
14247;SDS011;7208;49.826;6.004;2022-07-06T04:33:47;5.43;;;3.50;;
14247;SDS011;7208;49.826;6.004;2022-07-06T04:36:12;4.37;;;3.97;;
14247;SDS011;7208;49.826;6.004;2022-07-06T04:38:38;5.33;;;3.13;;
14247;SDS011;7208;49.826;6.004;2022-07-06T04:41:04;8.67;;;4.83;;
14247;SDS011;7208;49.826;6.004;2022-07-06T04:43:30;4.60;;;4.20;;
14247;SDS011;7208;49.826;6.004;2022-07-06T04:45:55;3.50;;;3.20;;
14247;SDS011;7208;49.826;6.004;2022-07-06T04:48:21;5.97;;;4.10;;
14247;SDS011;7208;49.826;6.004;2022-07-06T04:50:47;5.33;;;3.40;;
14247;SDS011;7208;49.826;6.004;2022-07-06T04:53:12;4.53;;;3.60;;
14247;SDS011;7208;49.826;6.004;2022-07-06T04:55:38;4.03;;;3.50;;
14247;SDS011;7208;49.826;6.004;2022-07-06T04:58:03;3.30;;;3.00;;
14247;SDS011;7208;49.826;6.004;2022-07-06T05:00:29;4.33;;;2.77;;
14247;SDS011;7208;49.826;6.004;2022-07-06T05:02:56;4.33;;;3.00;;
14247;SDS011;7208;49.826;6.004;2022-07-06T05:05:22;4.13;;;2.57;;
14247;SDS011;7208;49.826;6.004;2022-07-06T05:07:47;3.40;;;2.73;;
14247;SDS011;7208;49.826;6.004;2022-07-06T05:10:13;3.97;;;2.80;;
14247;SDS011;7208;49.826;6.004;2022-07-06T05:12:39;3.27;;;2.53;;
14247;SDS011;7208;49.826;6.004;2022-07-06T05:15:06;3.07;;;2.07;;
14247;SDS011;7208;49.826;6.004;2022-07-06T05:17:32;2.13;;;1.93;;
14247;SDS011;7208;49.826;6.004;2022-07-06T05:19:57;2.37;;;2.17;;
14247;SDS011;7208;49.826;6.004;2022-07-06T05:22:23;2.43;;;2.17;;
14247;SDS011;7208;49.826;6.004;2022-07-06T05:24:49;4.97;;;2.20;;
14247;SDS011;7208;49.826;6.004;2022-07-06T05:27:15;3.07;;;2.07;;
14247;SDS011;7208;49.826;6.004;2022-07-06T05:29:41;2.70;;;2.50;;
14247;SDS011;7208;49.826;6.004;2022-07-06T05:32:07;3.17;;;2.20;;
14247;SDS011;7208;49.826;6.004;2022-07-06T05:34:32;2.60;;;1.83;;
14247;SDS011;7208;49.826;6.004;2022-07-06T05:36:58;4.17;;;1.90;;
14247;SDS011;7208;49.826;6.004;2022-07-06T05:39:24;2.63;;;1.60;;
14247;SDS011;7208;49.826;6.004;2022-07-06T05:41:49;1.77;;;1.50;;
14247;SDS011;7208;49.826;6.004;2022-07-06T05:44:15;2.17;;;1.90;;
14247;SDS011;7208;49.826;6.004;2022-07-06T05:46:40;2.07;;;1.57;;
14247;SDS011;7208;49.826;6.004;2022-07-06T05:49:06;1.37;;;1.23;;
14247;SDS011;7208;49.826;6.004;2022-07-06T05:51:50;1.93;;;1.50;;
14247;SDS011;7208;49.826;6.004;2022-07-06T05:54:16;2.80;;;1.30;;
14247;SDS011;7208;49.826;6.004;2022-07-06T05:56:41;2.27;;;1.60;;
14247;SDS011;7208;49.826;6.004;2022-07-06T05:59:07;2.13;;;1.50;;
14247;SDS011;7208;49.826;6.004;2022-07-06T06:01:33;1.30;;;1.20;;
14247;SDS011;7208;49.826;6.004;2022-07-06T06:03:58;1.43;;;1.33;;
14247;SDS011;7208;49.826;6.004;2022-07-06T06:06:25;3.50;;;1.10;;
14247;SDS011;7208;49.826;6.004;2022-07-06T06:08:51;1.97;;;1.87;;
14247;SDS011;7208;49.826;6.004;2022-07-06T06:11:16;1.57;;;1.30;;
14247;SDS011;7208;49.826;6.004;2022-07-06T06:13:42;2.90;;;1.33;;
14247;SDS011;7208;49.826;6.004;2022-07-06T06:16:08;3.60;;;1.20;;
14247;SDS011;7208;49.826;6.004;2022-07-06T06:18:33;2.70;;;1.30;;
14247;SDS011;7208;49.826;6.004;2022-07-06T06:20:59;5.20;;;1.70;;
14247;SDS011;7208;49.826;6.004;2022-07-06T06:23:25;1.37;;;1.23;;
14247;SDS011;7208;49.826;6.004;2022-07-06T06:25:51;2.30;;;1.63;;
14247;SDS011;7208;49.826;6.004;2022-07-06T06:28:17;2.30;;;1.53;;
14247;SDS011;7208;49.826;6.004;2022-07-06T06:30:42;1.63;;;1.03;;
14247;SDS011;7208;49.826;6.004;2022-07-06T06:35:41;3.13;;;1.40;;
14247;SDS011;7208;49.826;6.004;2022-07-06T06:38:17;1.53;;;1.30;;
14247;SDS011;7208;49.826;6.004;2022-07-06T06:40:44;3.70;;;1.27;;
14247;SDS011;7208;49.826;6.004;2022-07-06T06:43:09;1.47;;;1.20;;
14247;SDS011;7208;49.826;6.004;2022-07-06T06:45:36;1.60;;;1.00;;
14247;SDS011;7208;49.826;6.004;2022-07-06T06:48:02;3.50;;;1.20;;
14247;SDS011;7208;49.826;6.004;2022-07-06T06:50:28;2.10;;;1.27;;
14247;SDS011;7208;49.826;6.004;2022-07-06T06:52:53;1.97;;;1.17;;
14247;SDS011;7208;49.826;6.004;2022-07-06T06:55:19;2.83;;;0.83;;
14247;SDS011;7208;49.826;6.004;2022-07-06T06:57:45;0.80;;;0.70;;
14247;SDS011;7208;49.826;6.004;2022-07-06T07:00:11;1.17;;;0.60;;
14247;SDS011;7208;49.826;6.004;2022-07-06T07:02:37;0.80;;;0.70;;
14247;SDS011;7208;49.826;6.004;2022-07-06T07:05:03;0.90;;;0.80;;
14247;SDS011;7208;49.826;6.004;2022-07-06T07:07:29;1.30;;;0.83;;
14247;SDS011;7208;49.826;6.004;2022-07-06T07:09:55;0.80;;;0.60;;
14247;SDS011;7208;49.826;6.004;2022-07-06T07:12:21;1.03;;;0.70;;
14247;SDS011;7208;49.826;6.004;2022-07-06T07:14:46;1.20;;;0.70;;
14247;SDS011;7208;49.826;6.004;2022-07-06T07:17:12;0.90;;;0.90;;
14247;SDS011;7208;49.826;6.004;2022-07-06T07:19:38;3.60;;;0.70;;
14247;SDS011;7208;49.826;6.004;2022-07-06T07:22:04;0.80;;;0.73;;
14247;SDS011;7208;49.826;6.004;2022-07-06T07:24:30;1.03;;;0.70;;
14247;SDS011;7208;49.826;6.004;2022-07-06T07:26:56;1.17;;;1.07;;
14247;SDS011;7208;49.826;6.004;2022-07-06T07:29:21;1.00;;;0.90;;
14247;SDS011;7208;49.826;6.004;2022-07-06T07:31:47;1.17;;;0.90;;
14247;SDS011;7208;49.826;6.004;2022-07-06T07:34:13;2.50;;;1.53;;
14247;SDS011;7208;49.826;6.004;2022-07-06T07:36:38;2.07;;;0.70;;
14247;SDS011;7208;49.826;6.004;2022-07-06T07:39:04;1.00;;;0.60;;
14247;SDS011;7208;49.826;6.004;2022-07-06T07:41:30;1.17;;;0.80;;
14247;SDS011;7208;49.826;6.004;2022-07-06T07:43:56;3.10;;;0.80;;
14247;SDS011;7208;49.826;6.004;2022-07-06T07:46:21;3.47;;;0.90;;
14247;SDS011;7208;49.826;6.004;2022-07-06T07:48:47;0.80;;;0.60;;
14247;SDS011;7208;49.826;6.004;2022-07-06T07:51:13;2.10;;;0.80;;
14247;SDS011;7208;49.826;6.004;2022-07-06T07:53:38;1.53;;;0.67;;
14247;SDS011;7208;49.826;6.004;2022-07-06T07:56:04;1.00;;;0.50;;
14247;SDS011;7208;49.826;6.004;2022-07-06T07:58:30;1.10;;;0.90;;
14247;SDS011;7208;49.826;6.004;2022-07-06T08:00:56;1.73;;;0.80;;
14247;SDS011;7208;49.826;6.004;2022-07-06T08:03:21;0.90;;;0.60;;
14247;SDS011;7208;49.826;6.004;2022-07-06T08:05:47;0.93;;;0.60;;
14247;SDS011;7208;49.826;6.004;2022-07-06T08:08:14;1.13;;;0.90;;
14247;SDS011;7208;49.826;6.004;2022-07-06T08:10:40;1.40;;;0.60;;
14247;SDS011;7208;49.826;6.004;2022-07-06T08:13:05;1.10;;;0.50;;
14247;SDS011;7208;49.826;6.004;2022-07-06T08:15:32;1.63;;;0.63;;
14247;SDS011;7208;49.826;6.004;2022-07-06T08:18:01;1.30;;;0.90;;
14247;SDS011;7208;49.826;6.004;2022-07-06T08:20:27;1.13;;;0.70;;
14247;SDS011;7208;49.826;6.004;2022-07-06T08:22:53;0.97;;;0.60;;
14247;SDS011;7208;49.826;6.004;2022-07-06T08:25:19;1.23;;;0.60;;
14247;SDS011;7208;49.826;6.004;2022-07-06T08:27:44;0.60;;;0.60;;
14247;SDS011;7208;49.826;6.004;2022-07-06T08:30:10;3.17;;;0.63;;
14247;SDS011;7208;49.826;6.004;2022-07-06T08:32:41;0.97;;;0.80;;
14247;SDS011;7208;49.826;6.004;2022-07-06T08:35:07;1.43;;;0.63;;
14247;SDS011;7208;49.826;6.004;2022-07-06T08:37:33;0.50;;;0.50;;
14247;SDS011;7208;49.826;6.004;2022-07-06T08:39:59;1.90;;;0.60;;
14247;SDS011;7208;49.826;6.004;2022-07-06T08:42:26;1.40;;;0.60;;
14247;SDS011;7208;49.826;6.004;2022-07-06T08:44:55;0.80;;;0.57;;
14247;SDS011;7208;49.826;6.004;2022-07-06T08:47:24;0.70;;;0.70;;
14247;SDS011;7208;49.826;6.004;2022-07-06T08:49:52;1.97;;;0.90;;
14247;SDS011;7208;49.826;6.004;2022-07-06T08:52:18;2.17;;;0.60;;
14247;SDS011;7208;49.826;6.004;2022-07-06T08:54:44;2.03;;;0.57;;
14247;SDS011;7208;49.826;6.004;2022-07-06T08:57:10;2.07;;;0.50;;
14247;SDS011;7208;49.826;6.004;2022-07-06T08:59:35;0.93;;;0.53;;
14247;SDS011;7208;49.826;6.004;2022-07-06T09:02:03;0.50;;;0.40;;
14247;SDS011;7208;49.826;6.004;2022-07-06T09:04:29;3.43;;;0.60;;
14247;SDS011;7208;49.826;6.004;2022-07-06T09:07:00;0.40;;;0.40;;
14247;SDS011;7208;49.826;6.004;2022-07-06T09:09:26;1.37;;;0.50;;
14247;SDS011;7208;49.826;6.004;2022-07-06T09:11:56;2.03;;;0.80;;
14247;SDS011;7208;49.826;6.004;2022-07-06T09:14:22;0.87;;;0.53;;
14247;SDS011;7208;49.826;6.004;2022-07-06T09:16:51;1.43;;;0.67;;
14247;SDS011;7208;49.826;6.004;2022-07-06T09:19:30;1.03;;;0.60;;
14247;SDS011;7208;49.826;6.004;2022-07-06T09:21:57;2.50;;;0.57;;
14247;SDS011;7208;49.826;6.004;2022-07-06T09:24:23;1.43;;;0.50;;
14247;SDS011;7208;49.826;6.004;2022-07-06T09:26:51;1.73;;;0.50;;
14247;SDS011;7208;49.826;6.004;2022-07-06T09:29:27;1.57;;;0.60;;
14247;SDS011;7208;49.826;6.004;2022-07-06T09:31:57;0.77;;;0.40;;
14247;SDS011;7208;49.826;6.004;2022-07-06T09:34:24;0.87;;;0.50;;
14247;SDS011;7208;49.826;6.004;2022-07-06T09:36:51;1.63;;;0.55;;
14247;SDS011;7208;49.826;6.004;2022-07-06T09:41:46;0.40;;;0.40;;
14247;SDS011;7208;49.826;6.004;2022-07-06T09:44:13;0.57;;;0.50;;
14247;SDS011;7208;49.826;6.004;2022-07-06T09:46:51;2.03;;;0.63;;
14247;SDS011;7208;49.826;6.004;2022-07-06T09:49:21;2.10;;;0.50;;
14247;SDS011;7208;49.826;6.004;2022-07-06T09:51:48;0.40;;;0.40;;
14247;SDS011;7208;49.826;6.004;2022-07-06T09:54:16;1.73;;;0.60;;
14247;SDS011;7208;49.826;6.004;2022-07-06T09:56:43;0.80;;;0.57;;
14247;SDS011;7208;49.826;6.004;2022-07-06T09:59:16;1.13;;;0.57;;
14247;SDS011;7208;49.826;6.004;2022-07-06T10:01:43;0.70;;;0.40;;
14247;SDS011;7208;49.826;6.004;2022-07-06T10:04:10;1.13;;;0.40;;
14247;SDS011;7208;49.826;6.004;2022-07-06T10:06:39;0.47;;;0.47;;
14247;SDS011;7208;49.826;6.004;2022-07-06T10:09:06;1.40;;;0.60;;
14247;SDS011;7208;49.826;6.004;2022-07-06T10:11:34;1.80;;;0.60;;
14247;SDS011;7208;49.826;6.004;2022-07-06T10:14:03;1.13;;;0.50;;
14247;SDS011;7208;49.826;6.004;2022-07-06T10:16:31;1.37;;;0.50;;
14247;SDS011;7208;49.826;6.004;2022-07-06T10:18:58;0.87;;;0.50;;
14247;SDS011;7208;49.826;6.004;2022-07-06T10:21:26;0.80;;;0.50;;
14247;SDS011;7208;49.826;6.004;2022-07-06T10:23:52;1.13;;;0.60;;
14247;SDS011;7208;49.826;6.004;2022-07-06T10:26:18;0.70;;;0.60;;
14247;SDS011;7208;49.826;6.004;2022-07-06T10:28:48;1.27;;;0.57;;
14247;SDS011;7208;49.826;6.004;2022-07-06T10:31:15;1.60;;;0.60;;
14247;SDS011;7208;49.826;6.004;2022-07-06T10:33:42;0.80;;;0.33;;
14247;SDS011;7208;49.826;6.004;2022-07-06T10:36:08;1.70;;;0.50;;
14247;SDS011;7208;49.826;6.004;2022-07-06T10:38:35;1.37;;;0.77;;
14247;SDS011;7208;49.826;6.004;2022-07-06T10:41:04;1.17;;;0.50;;
14247;SDS011;7208;49.826;6.004;2022-07-06T10:43:35;1.47;;;0.43;;
14247;SDS011;7208;49.826;6.004;2022-07-06T10:46:08;1.17;;;0.50;;
14247;SDS011;7208;49.826;6.004;2022-07-06T10:48:40;2.40;;;0.50;;
14247;SDS011;7208;49.826;6.004;2022-07-06T10:51:07;2.00;;;0.93;;
14247;SDS011;7208;49.826;6.004;2022-07-06T10:53:36;1.20;;;0.60;;
14247;SDS011;7208;49.826;6.004;2022-07-06T10:56:05;1.33;;;1.23;;
14247;SDS011;7208;49.826;6.004;2022-07-06T11:01:05;1.20;;;0.60;;
14247;SDS011;7208;49.826;6.004;2022-07-06T11:03:45;1.17;;;0.60;;
14247;SDS011;7208;49.826;6.004;2022-07-06T11:13:55;1.00;;;0.93;;
14247;SDS011;7208;49.826;6.004;2022-07-06T11:16:26;2.50;;;0.60;;
14247;SDS011;7208;49.826;6.004;2022-07-06T11:18:59;1.70;;;0.43;;
14247;SDS011;7208;49.826;6.004;2022-07-06T11:21:32;1.43;;;0.80;;
14247;SDS011;7208;49.826;6.004;2022-07-06T11:24:02;1.83;;;0.60;;
14247;SDS011;7208;49.826;6.004;2022-07-06T11:26:30;1.57;;;0.53;;
14247;SDS011;7208;49.826;6.004;2022-07-06T11:28:58;0.67;;;0.60;;
14247;SDS011;7208;49.826;6.004;2022-07-06T11:31:25;1.20;;;0.60;;
14247;SDS011;7208;49.826;6.004;2022-07-06T11:33:51;0.80;;;0.60;;
14247;SDS011;7208;49.826;6.004;2022-07-06T11:36:17;1.73;;;1.10;;
14247;SDS011;7208;49.826;6.004;2022-07-06T11:38:45;1.50;;;0.50;;
14247;SDS011;7208;49.826;6.004;2022-07-06T11:41:12;1.13;;;0.67;;
14247;SDS011;7208;49.826;6.004;2022-07-06T11:43:42;1.60;;;0.80;;
14247;SDS011;7208;49.826;6.004;2022-07-06T11:48:47;0.60;;;0.57;;
14247;SDS011;7208;49.826;6.004;2022-07-06T11:51:13;1.50;;;0.80;;
14247;SDS011;7208;49.826;6.004;2022-07-06T11:53:44;1.10;;;0.53;;
14247;SDS011;7208;49.826;6.004;2022-07-06T11:56:11;1.50;;;0.50;;
14247;SDS011;7208;49.826;6.004;2022-07-06T11:58:38;3.27;;;0.53;;
14247;SDS011;7208;49.826;6.004;2022-07-06T12:01:08;2.10;;;0.93;;
14247;SDS011;7208;49.826;6.004;2022-07-06T12:03:35;1.10;;;0.70;;
14247;SDS011;7208;49.826;6.004;2022-07-06T12:06:05;1.20;;;0.47;;
14247;SDS011;7208;49.826;6.004;2022-07-06T12:08:32;0.73;;;0.60;;
14247;SDS011;7208;49.826;6.004;2022-07-06T12:11:05;0.90;;;0.60;;
14247;SDS011;7208;49.826;6.004;2022-07-06T12:13:35;1.47;;;0.80;;
14247;SDS011;7208;49.826;6.004;2022-07-06T12:16:11;2.30;;;0.50;;
14247;SDS011;7208;49.826;6.004;2022-07-06T12:18:38;2.27;;;0.77;;
14247;SDS011;7208;49.826;6.004;2022-07-06T12:21:06;1.60;;;0.60;;
14247;SDS011;7208;49.826;6.004;2022-07-06T12:23:42;1.07;;;0.80;;
14247;SDS011;7208;49.826;6.004;2022-07-06T12:26:13;0.80;;;0.70;;
14247;SDS011;7208;49.826;6.004;2022-07-06T12:28:41;1.07;;;0.70;;
14247;SDS011;7208;49.826;6.004;2022-07-06T12:31:07;1.57;;;0.70;;
14247;SDS011;7208;49.826;6.004;2022-07-06T12:33:33;2.53;;;1.00;;
14247;SDS011;7208;49.826;6.004;2022-07-06T12:36:09;0.40;;;0.40;;
14247;SDS011;7208;49.826;6.004;2022-07-06T12:38:36;1.13;;;0.50;;
14247;SDS011;7208;49.826;6.004;2022-07-06T12:41:33;1.27;;;0.80;;
14247;SDS011;7208;49.826;6.004;2022-07-06T12:46:29;0.80;;;0.80;;
14247;SDS011;7208;49.826;6.004;2022-07-06T12:48:57;2.60;;;1.00;;
14247;SDS011;7208;49.826;6.004;2022-07-06T12:51:24;1.30;;;0.60;;
14247;SDS011;7208;49.826;6.004;2022-07-06T12:53:50;1.03;;;0.60;;
14247;SDS011;7208;49.826;6.004;2022-07-06T12:56:17;1.30;;;0.70;;
14247;SDS011;7208;49.826;6.004;2022-07-06T13:01:46;2.03;;;0.50;;
14247;SDS011;7208;49.826;6.004;2022-07-06T13:04:12;1.13;;;0.50;;
14247;SDS011;7208;49.826;6.004;2022-07-06T13:06:38;1.57;;;0.80;;
14247;SDS011;7208;49.826;6.004;2022-07-06T13:09:04;1.07;;;0.60;;
14247;SDS011;7208;49.826;6.004;2022-07-06T13:11:29;1.67;;;0.80;;
14247;SDS011;7208;49.826;6.004;2022-07-06T13:13:56;2.07;;;0.90;;
14247;SDS011;7208;49.826;6.004;2022-07-06T13:16:21;2.50;;;0.77;;
14247;SDS011;7208;49.826;6.004;2022-07-06T13:18:49;0.97;;;0.70;;
14247;SDS011;7208;49.826;6.004;2022-07-06T13:21:15;0.70;;;0.50;;
14247;SDS011;7208;49.826;6.004;2022-07-06T13:23:40;1.63;;;0.80;;
14247;SDS011;7208;49.826;6.004;2022-07-06T13:26:06;1.23;;;0.70;;
14247;SDS011;7208;49.826;6.004;2022-07-06T13:28:32;1.10;;;0.70;;
14247;SDS011;7208;49.826;6.004;2022-07-06T13:30:58;1.80;;;0.90;;
14247;SDS011;7208;49.826;6.004;2022-07-06T13:33:23;1.40;;;0.80;;
14247;SDS011;7208;49.826;6.004;2022-07-06T13:35:49;1.30;;;0.90;;
14247;SDS011;7208;49.826;6.004;2022-07-06T13:38:15;2.20;;;0.70;;
14247;SDS011;7208;49.826;6.004;2022-07-06T13:40:40;2.37;;;1.10;;
14247;SDS011;7208;49.826;6.004;2022-07-06T13:43:06;0.97;;;0.70;;
14247;SDS011;7208;49.826;6.004;2022-07-06T13:45:32;1.97;;;1.13;;
14247;SDS011;7208;49.826;6.004;2022-07-06T13:47:57;0.60;;;0.60;;
14247;SDS011;7208;49.826;6.004;2022-07-06T13:50:23;0.90;;;0.60;;
14247;SDS011;7208;49.826;6.004;2022-07-06T13:52:50;2.43;;;0.80;;
14247;SDS011;7208;49.826;6.004;2022-07-06T13:55:16;0.93;;;0.50;;
14247;SDS011;7208;49.826;6.004;2022-07-06T13:57:41;1.47;;;0.73;;
14247;SDS011;7208;49.826;6.004;2022-07-06T14:00:08;0.87;;;0.80;;
14247;SDS011;7208;49.826;6.004;2022-07-06T14:02:34;1.37;;;0.70;;
14247;SDS011;7208;49.826;6.004;2022-07-06T14:05:00;1.20;;;0.93;;
14247;SDS011;7208;49.826;6.004;2022-07-06T14:07:25;0.73;;;0.60;;
14247;SDS011;7208;49.826;6.004;2022-07-06T14:09:51;1.13;;;0.63;;
14247;SDS011;7208;49.826;6.004;2022-07-06T14:12:17;0.63;;;0.60;;
14247;SDS011;7208;49.826;6.004;2022-07-06T14:14:42;1.23;;;0.60;;
14247;SDS011;7208;49.826;6.004;2022-07-06T14:17:08;1.53;;;0.57;;
14247;SDS011;7208;49.826;6.004;2022-07-06T14:19:34;0.70;;;0.50;;
14247;SDS011;7208;49.826;6.004;2022-07-06T14:21:59;2.13;;;1.67;;
14247;SDS011;7208;49.826;6.004;2022-07-06T14:24:25;0.97;;;0.77;;
14247;SDS011;7208;49.826;6.004;2022-07-06T14:26:51;2.40;;;0.70;;
14247;SDS011;7208;49.826;6.004;2022-07-06T14:29:16;1.67;;;0.80;;
14247;SDS011;7208;49.826;6.004;2022-07-06T14:31:42;0.83;;;0.60;;
14247;SDS011;7208;49.826;6.004;2022-07-06T14:34:08;0.70;;;0.50;;
14247;SDS011;7208;49.826;6.004;2022-07-06T14:36:33;0.60;;;0.60;;
14247;SDS011;7208;49.826;6.004;2022-07-06T14:39:02;1.17;;;0.63;;
14247;SDS011;7208;49.826;6.004;2022-07-06T14:41:28;0.60;;;0.60;;
14247;SDS011;7208;49.826;6.004;2022-07-06T14:43:54;2.00;;;0.80;;
14247;SDS011;7208;49.826;6.004;2022-07-06T14:46:20;1.83;;;0.83;;
14247;SDS011;7208;49.826;6.004;2022-07-06T14:48:45;1.10;;;0.70;;
14247;SDS011;7208;49.826;6.004;2022-07-06T14:51:11;1.27;;;0.60;;
14247;SDS011;7208;49.826;6.004;2022-07-06T14:53:37;1.23;;;1.00;;
14247;SDS011;7208;49.826;6.004;2022-07-06T14:56:02;2.20;;;0.83;;
14247;SDS011;7208;49.826;6.004;2022-07-06T14:58:28;3.40;;;0.80;;
14247;SDS011;7208;49.826;6.004;2022-07-06T15:00:54;1.83;;;0.90;;
14247;SDS011;7208;49.826;6.004;2022-07-06T15:03:20;2.23;;;0.70;;
14247;SDS011;7208;49.826;6.004;2022-07-06T15:05:45;1.03;;;0.80;;
14247;SDS011;7208;49.826;6.004;2022-07-06T15:08:13;1.37;;;0.70;;
14247;SDS011;7208;49.826;6.004;2022-07-06T15:10:40;2.20;;;0.67;;
14247;SDS011;7208;49.826;6.004;2022-07-06T15:13:06;1.33;;;0.60;;
14247;SDS011;7208;49.826;6.004;2022-07-06T15:15:32;1.10;;;0.60;;
14247;SDS011;7208;49.826;6.004;2022-07-06T15:17:58;1.07;;;0.70;;
14247;SDS011;7208;49.826;6.004;2022-07-06T15:20:24;1.93;;;0.80;;